Time;durP1;ratioP1;P1;durP2;ratioP2;P2;SDS_P1;SDS_P2;PMS_P1;PMS_P2;Temp;Humidity;BMP_temperature;BMP_pressure;BME280_temperature;BME280_humidity;BME280_pressure;Samples;Min_cycle;Max_cycle;Signal;HPM_P1;HPM_P2
2023/12/14 00:01:51;;;;;;;24.52;13.95;;;4.10;99.90;;;;;;5039998;28;20039;-62
2023/12/14 00:04:17;;;;;;;25.85;13.40;;;4.10;99.90;;;;;;5040115;28;20033;-61
2023/12/14 00:06:42;;;;;;;26.85;14.00;;;4.10;99.90;;;;;;5041797;28;20117;-62
2023/12/14 00:09:08;;;;;;;28.10;14.82;;;4.10;99.90;;;;;;5038587;28;20111;-62
2023/12/14 00:11:38;;;;;;;27.15;15.40;;;4.00;99.90;;;;;;5040224;28;20589;-61
2023/12/14 00:14:04;;;;;;;27.70;14.95;;;4.00;99.90;;;;;;5040923;28;20025;-61
2023/12/14 00:16:29;;;;;;;22.95;13.50;;;4.00;99.90;;;;;;5040950;28;20087;-61
2023/12/14 00:18:55;;;;;;;26.75;14.30;;;4.00;99.90;;;;;;5041281;28;20683;-61
2023/12/14 00:21:20;;;;;;;30.35;14.98;;;3.90;99.90;;;;;;5040846;28;20086;-60
2023/12/14 00:23:46;;;;;;;23.08;12.60;;;3.90;99.90;;;;;;5043027;28;20027;-61
2023/12/14 00:26:11;;;;;;;28.92;15.35;;;3.90;99.90;;;;;;5036659;28;20035;-61
2023/12/14 00:28:37;;;;;;;22.10;12.10;;;3.90;99.90;;;;;;5036462;28;20024;-62
2023/12/14 00:31:02;;;;;;;26.80;13.43;;;3.80;99.90;;;;;;5040503;28;20026;-61
2023/12/14 00:33:28;;;;;;;24.92;12.98;;;3.80;99.90;;;;;;5040401;28;20331;-62
2023/12/14 00:35:53;;;;;;;27.55;13.13;;;3.80;99.90;;;;;;5039234;28;20119;-62
2023/12/14 00:38:19;;;;;;;27.95;13.77;;;3.80;99.90;;;;;;5040644;28;20078;-61
2023/12/14 00:40:44;;;;;;;18.70;10.63;;;3.80;99.90;;;;;;5040698;28;20069;-61
2023/12/14 00:43:10;;;;;;;23.58;12.07;;;3.70;99.90;;;;;;5040461;28;20025;-62
2023/12/14 00:45:35;;;;;;;25.60;12.38;;;3.70;99.90;;;;;;5040508;28;20064;-62
2023/12/14 00:48:01;;;;;;;22.85;11.35;;;3.70;99.90;;;;;;5040446;28;20028;-61
2023/12/14 00:50:26;;;;;;;24.23;12.10;;;3.70;99.90;;;;;;5042376;28;20046;-62
2023/12/14 00:52:52;;;;;;;25.83;12.80;;;3.70;99.90;;;;;;5039021;28;20035;-62
2023/12/14 00:55:17;;;;;;;23.23;11.38;;;3.60;99.90;;;;;;5040401;28;20021;-62
2023/12/14 00:57:43;;;;;;;23.98;12.05;;;3.60;99.90;;;;;;5036098;28;20506;-62
2023/12/14 01:00:12;;;;;;;24.13;11.10;;;3.60;99.90;;;;;;5040127;28;20040;-62
2023/12/14 01:02:38;;;;;;;20.77;10.75;;;3.60;99.90;;;;;;5039056;28;20032;-62
2023/12/14 01:05:04;;;;;;;25.10;12.52;;;3.60;99.90;;;;;;5040216;28;20100;-61
2023/12/14 01:07:29;;;;;;;24.13;11.70;;;3.60;99.90;;;;;;5041946;28;20882;-62
2023/12/14 01:09:55;;;;;;;22.38;12.45;;;3.50;99.90;;;;;;5040761;28;20088;-63
2023/12/14 01:12:21;;;;;;;27.17;12.48;;;3.60;99.90;;;;;;5040087;28;20063;-62
2023/12/14 01:14:46;;;;;;;22.77;10.77;;;3.50;99.90;;;;;;5040272;28;20112;-62
2023/12/14 01:17:12;;;;;;;24.27;10.98;;;3.50;99.90;;;;;;5039959;28;20045;-62
2023/12/14 01:19:40;;;;;;;22.05;11.43;;;3.50;99.90;;;;;;5038028;28;20159;-62
2023/12/14 01:22:06;;;;;;;23.98;11.30;;;3.50;99.90;;;;;;5039959;28;20017;-62
2023/12/14 01:24:31;;;;;;;21.48;10.98;;;3.50;99.90;;;;;;5041939;28;20029;-61
2023/12/14 01:26:57;;;;;;;27.17;11.55;;;3.50;99.90;;;;;;5041934;28;20072;-62
2023/12/14 01:29:22;;;;;;;28.08;12.40;;;3.50;99.90;;;;;;5039660;28;20028;-62
2023/12/14 01:31:48;;;;;;;24.02;12.02;;;3.50;99.90;;;;;;5039954;28;20033;-62
2023/12/14 01:34:15;;;;;;;25.80;13.20;;;3.50;99.90;;;;;;5038759;28;20053;-62
2023/12/14 01:36:41;;;;;;;20.50;11.20;;;3.50;99.90;;;;;;5033722;28;20037;-62
2023/12/14 01:39:06;;;;;;;19.55;10.25;;;3.40;99.90;;;;;;5039690;28;20033;-61
2023/12/14 01:41:32;;;;;;;25.05;11.70;;;3.40;99.90;;;;;;5039687;28;20029;-61
2023/12/14 01:43:57;;;;;;;21.95;10.25;;;3.40;99.90;;;;;;5041623;28;20055;-61
2023/12/14 01:46:23;;;;;;;21.58;10.18;;;3.40;99.90;;;;;;5039667;28;20100;-58
2023/12/14 01:48:49;;;;;;;19.67;10.15;;;3.40;99.90;;;;;;5039472;28;20107;-56
2023/12/14 01:51:15;;;;;;;22.65;11.90;;;3.40;99.90;;;;;;5039786;28;20043;-55
2023/12/14 01:53:40;;;;;;;19.63;10.65;;;3.40;99.90;;;;;;5036802;28;20052;-58
2023/12/14 01:56:07;;;;;;;17.38;9.43;;;3.40;99.90;;;;;;5039496;28;20033;-57
2023/12/14 01:58:32;;;;;;;20.45;10.55;;;3.40;99.90;;;;;;5039542;28;20063;-56
2023/12/14 02:01:14;;;;;;;19.23;10.77;;;3.40;99.90;;;;;;5041888;28;20632;-56
2023/12/14 02:03:47;;;;;;;23.60;11.75;;;3.40;99.90;;;;;;5032995;28;20021;-57
2023/12/14 02:06:12;;;;;;;18.60;10.02;;;3.30;99.90;;;;;;5035170;28;20017;-56
2023/12/14 02:08:37;;;;;;;21.98;10.50;;;3.30;99.90;;;;;;5034907;28;20402;-57
2023/12/14 02:11:03;;;;;;;18.38;10.73;;;3.30;99.90;;;;;;5033393;28;20104;-57
2023/12/14 02:13:29;;;;;;;21.80;10.52;;;3.20;99.90;;;;;;5035967;28;20033;-56
2023/12/14 02:15:54;;;;;;;17.58;10.00;;;3.30;99.90;;;;;;5034565;28;20025;-57
2023/12/14 02:18:19;;;;;;;23.60;11.57;;;3.30;99.90;;;;;;5030810;28;20041;-58
2023/12/14 02:20:45;;;;;;;21.85;9.10;;;3.20;99.90;;;;;;5034637;28;20029;-56
2023/12/14 02:23:10;;;;;;;20.80;10.77;;;3.20;99.90;;;;;;5030736;28;20503;-55
2023/12/14 02:25:36;;;;;;;20.77;10.15;;;3.20;99.90;;;;;;5037343;28;20029;-57
2023/12/14 02:28:01;;;;;;;19.77;10.70;;;3.20;99.90;;;;;;5031011;28;20491;-57
2023/12/14 02:30:27;;;;;;;18.80;9.93;;;3.20;99.90;;;;;;5033217;28;20060;-56
2023/12/14 02:32:52;;;;;;;25.10;11.98;;;3.20;99.90;;;;;;5037352;28;20021;-57
2023/12/14 02:35:18;;;;;;;18.27;9.50;;;3.20;99.90;;;;;;5038738;28;20094;-56
2023/12/14 02:37:43;;;;;;;19.00;8.75;;;3.20;99.90;;;;;;5032613;28;20033;-57
2023/12/14 02:40:10;;;;;;;20.38;11.18;;;3.20;99.90;;;;;;5038364;28;20029;-57
2023/12/14 02:42:36;;;;;;;20.17;10.05;;;3.20;99.90;;;;;;5037927;28;20120;-57
2023/12/14 02:45:02;;;;;;;17.67;9.32;;;3.20;99.90;;;;;;5042645;28;20168;-57
2023/12/14 02:47:28;;;;;;;18.95;9.50;;;3.20;99.90;;;;;;5042631;28;20031;-56
2023/12/14 02:49:54;;;;;;;16.00;9.13;;;3.10;99.90;;;;;;5042833;28;20032;-57
2023/12/14 02:52:20;;;;;;;16.35;9.55;;;3.10;99.90;;;;;;5042594;28;20036;-57
2023/12/14 02:54:45;;;;;;;21.15;9.13;;;3.10;99.90;;;;;;5042797;28;20572;-57
2023/12/14 02:57:11;;;;;;;21.15;10.98;;;3.10;99.90;;;;;;5036679;28;20412;-57
2023/12/14 02:59:36;;;;;;;20.75;10.25;;;3.10;99.90;;;;;;5041409;28;20043;-57
2023/12/14 03:02:02;;;;;;;21.42;11.13;;;3.10;99.90;;;;;;5038310;28;20032;-58
2023/12/14 03:04:27;;;;;;;23.85;12.25;;;3.10;99.90;;;;;;5041478;28;20025;-57
2023/12/14 03:06:53;;;;;;;19.45;10.20;;;3.10;99.90;;;;;;5035707;28;20021;-59
2023/12/14 03:09:19;;;;;;;18.23;9.50;;;3.10;99.90;;;;;;5035937;28;20021;-57
2023/12/14 03:11:45;;;;;;;19.25;9.23;;;3.10;99.90;;;;;;5038421;28;20020;-57
2023/12/14 03:14:11;;;;;;;22.42;10.27;;;3.10;99.90;;;;;;5038061;28;20055;-57
2023/12/14 03:16:36;;;;;;;23.50;11.43;;;3.10;99.90;;;;;;5037550;28;20033;-57
2023/12/14 03:19:03;;;;;;;18.73;9.95;;;3.10;99.90;;;;;;5033769;28;20244;-58
2023/12/14 03:21:28;;;;;;;17.40;9.05;;;3.10;99.90;;;;;;5037476;28;20045;-56
2023/12/14 03:23:54;;;;;;;17.63;10.38;;;3.10;99.90;;;;;;5036487;28;20498;-58
2023/12/14 03:26:19;;;;;;;17.30;9.65;;;3.10;99.90;;;;;;5038560;28;20032;-57
2023/12/14 03:28:45;;;;;;;18.77;9.20;;;3.10;99.90;;;;;;5037499;28;20033;-57
2023/12/14 03:31:12;;;;;;;19.25;8.82;;;3.10;99.90;;;;;;5042064;28;20083;-58
2023/12/14 03:33:38;;;;;;;23.50;10.27;;;3.10;99.90;;;;;;5037371;28;20117;-56
2023/12/14 03:36:04;;;;;;;23.75;11.48;;;3.10;99.90;;;;;;5028588;28;20112;-57
2023/12/14 03:38:29;;;;;;;17.33;9.40;;;3.10;99.90;;;;;;5043550;28;20085;-57
2023/12/14 03:40:55;;;;;;;21.27;10.13;;;3.10;99.90;;;;;;5037941;28;20025;-58
2023/12/14 03:43:20;;;;;;;18.42;10.30;;;3.10;99.90;;;;;;5041294;28;20033;-57
2023/12/14 03:45:46;;;;;;;16.75;9.93;;;3.10;99.90;;;;;;5041679;28;20092;-58
2023/12/14 03:48:11;;;;;;;18.27;9.35;;;3.10;99.90;;;;;;5040237;28;20029;-58
2023/12/14 03:50:37;;;;;;;17.10;7.72;;;3.20;99.90;;;;;;5041663;28;20033;-57
2023/12/14 03:53:02;;;;;;;14.70;8.20;;;3.20;99.90;;;;;;5041497;28;20494;-56
2023/12/14 03:55:28;;;;;;;13.38;7.18;;;3.20;99.90;;;;;;5043463;28;20040;-57
2023/12/14 03:57:53;;;;;;;16.42;9.23;;;3.20;99.90;;;;;;5041274;28;20107;-57
2023/12/14 04:00:19;;;;;;;16.08;8.48;;;3.20;99.90;;;;;;5041471;28;20486;-58
2023/12/14 04:02:44;;;;;;;14.73;8.40;;;3.20;99.90;;;;;;5041619;28;20043;-57
2023/12/14 04:05:10;;;;;;;12.52;7.13;;;3.20;99.90;;;;;;5039713;28;20036;-56
2023/12/14 04:07:39;;;;;;;14.77;7.72;;;3.20;99.90;;;;;;5033138;28;20055;-57
2023/12/14 04:10:05;;;;;;;14.07;7.70;;;3.20;99.90;;;;;;5036675;28;20386;-56
2023/12/14 04:12:30;;;;;;;14.90;8.13;;;3.20;99.90;;;;;;5034879;28;20025;-57
2023/12/14 04:14:56;;;;;;;13.35;8.15;;;3.20;99.90;;;;;;5033153;28;20013;-57
2023/12/14 04:17:21;;;;;;;13.38;7.13;;;3.20;99.90;;;;;;5036760;28;20559;-58
2023/12/14 04:19:47;;;;;;;13.02;8.02;;;3.20;99.90;;;;;;5037119;28;20032;-58
2023/12/14 04:22:12;;;;;;;12.73;7.60;;;3.20;99.90;;;;;;5035346;28;20032;-58
2023/12/14 04:24:38;;;;;;;12.82;7.57;;;3.20;99.90;;;;;;5036513;28;20434;-57
2023/12/14 04:27:03;;;;;;;12.52;7.22;;;3.30;99.90;;;;;;5035392;28;20032;-55
2023/12/14 04:29:29;;;;;;;16.58;8.40;;;3.30;99.90;;;;;;5035509;28;20149;-58
2023/12/14 04:31:54;;;;;;;11.05;7.15;;;3.30;99.90;;;;;;5041080;28;20021;-58
2023/12/14 04:34:20;;;;;;;10.57;7.35;;;3.30;99.90;;;;;;5040616;28;20029;-57
2023/12/14 04:36:46;;;;;;;12.63;7.13;;;3.30;99.90;;;;;;5032787;28;20502;-55
2023/12/14 04:39:11;;;;;;;13.05;6.82;;;3.30;99.90;;;;;;5034411;28;20437;-57
2023/12/14 04:41:37;;;;;;;10.85;6.75;;;3.20;99.90;;;;;;5038149;28;20029;-57
2023/12/14 04:44:03;;;;;;;12.30;7.07;;;3.30;99.90;;;;;;5039640;28;20422;-55
2023/12/14 04:46:28;;;;;;;11.80;7.38;;;3.30;99.90;;;;;;5036900;28;20048;-54
2023/12/14 04:48:54;;;;;;;11.07;7.30;;;3.30;99.90;;;;;;5034378;28;20682;-57
2023/12/14 04:51:20;;;;;;;15.32;8.20;;;3.30;99.90;;;;;;5037469;28;20481;-57
2023/12/14 04:53:45;;;;;;;12.55;7.63;;;3.30;99.90;;;;;;5037244;28;20017;-56
2023/12/14 04:56:11;;;;;;;10.30;6.15;;;3.30;99.90;;;;;;5040938;28;20408;-58
2023/12/14 04:58:41;;;;;;;11.30;6.55;;;3.30;99.90;;;;;;5039432;28;20431;-57
2023/12/14 05:01:07;;;;;;;9.85;6.13;;;3.30;99.90;;;;;;5038712;28;20073;-57
2023/12/14 05:03:34;;;;;;;10.40;7.50;;;3.30;99.90;;;;;;5039388;28;20126;-57
2023/12/14 05:06:00;;;;;;;14.73;8.35;;;3.30;99.90;;;;;;5035950;28;20020;-57
2023/12/14 05:08:25;;;;;;;16.48;7.43;;;3.30;99.90;;;;;;5035583;28;20136;-57
2023/12/14 05:10:51;;;;;;;13.90;8.20;;;3.40;99.90;;;;;;5038865;28;20021;-55
2023/12/14 05:13:16;;;;;;;12.10;7.93;;;3.40;99.90;;;;;;5037847;28;20387;-60
2023/12/14 05:15:42;;;;;;;12.18;7.68;;;3.30;99.90;;;;;;5040127;28;20076;-62
2023/12/14 05:18:08;;;;;;;16.40;8.98;;;3.40;99.90;;;;;;5034765;28;20049;-63
2023/12/14 05:20:35;;;;;;;11.30;6.70;;;3.30;99.90;;;;;;5035155;28;20029;-62
2023/12/14 05:23:00;;;;;;;10.73;7.45;;;3.40;99.90;;;;;;5033284;28;20025;-62
2023/12/14 05:25:26;;;;;;;11.90;6.70;;;3.40;99.90;;;;;;5030132;28;20037;-62
2023/12/14 05:27:51;;;;;;;10.32;6.38;;;3.40;99.90;;;;;;5036757;28;20471;-61
2023/12/14 05:30:17;;;;;;;14.82;7.43;;;3.40;99.90;;;;;;5033834;28;20033;-62
2023/12/14 05:32:43;;;;;;;11.55;7.30;;;3.40;99.90;;;;;;5034589;28;20123;-62
2023/12/14 05:35:09;;;;;;;12.82;7.88;;;3.40;99.90;;;;;;5041283;28;20021;-61
2023/12/14 05:37:35;;;;;;;14.30;8.05;;;3.40;99.90;;;;;;5024459;28;20029;-62
2023/12/14 05:40:02;;;;;;;12.98;8.27;;;3.40;99.90;;;;;;5038545;28;20025;-62
2023/12/14 05:42:28;;;;;;;10.15;6.95;;;3.40;99.90;;;;;;5038963;28;20486;-62
2023/12/14 05:44:53;;;;;;;10.52;6.60;;;3.40;99.90;;;;;;5034523;28;20025;-62
2023/12/14 05:47:19;;;;;;;8.98;6.00;;;3.40;99.90;;;;;;5037854;28;20024;-63
2023/12/14 05:49:44;;;;;;;11.20;7.32;;;3.40;99.90;;;;;;5038931;28;20025;-63
2023/12/14 05:52:10;;;;;;;15.73;8.43;;;3.40;99.90;;;;;;5033353;28;20032;-64
2023/12/14 05:54:37;;;;;;;13.18;7.85;;;3.40;99.90;;;;;;5036740;28;20112;-64
2023/12/14 05:57:03;;;;;;;12.07;7.68;;;3.40;99.90;;;;;;5036430;28;20048;-63
2023/12/14 05:59:28;;;;;;;13.07;7.55;;;3.40;99.90;;;;;;5034855;28;20470;-63
2023/12/14 06:01:57;;;;;;;11.68;7.03;;;3.40;99.90;;;;;;5040053;28;20029;-64
2023/12/14 06:04:23;;;;;;;14.85;7.70;;;3.40;99.90;;;;;;5037918;28;20422;-63
2023/12/14 06:06:49;;;;;;;15.13;7.28;;;3.40;99.90;;;;;;5036347;28;20033;-64
2023/12/14 06:09:14;;;;;;;12.57;7.00;;;3.40;99.90;;;;;;5040912;28;20032;-64
2023/12/14 06:11:40;;;;;;;13.65;8.43;;;3.40;99.90;;;;;;5037876;28;20025;-63
2023/12/14 06:14:05;;;;;;;14.05;7.72;;;3.40;99.90;;;;;;5040632;28;20033;-63
2023/12/14 06:16:31;;;;;;;12.77;7.95;;;3.40;99.90;;;;;;5037079;28;20033;-63
2023/12/14 06:18:56;;;;;;;15.48;9.63;;;3.40;99.90;;;;;;5043315;28;20029;-64
2023/12/14 06:21:26;;;;;;;13.32;8.02;;;3.40;99.90;;;;;;5042204;28;20029;-63
2023/12/14 06:23:51;;;;;;;14.88;8.68;;;3.40;99.90;;;;;;5040514;28;20036;-63
2023/12/14 06:26:17;;;;;;;12.52;7.13;;;3.40;99.90;;;;;;5042113;28;20033;-64
2023/12/14 06:28:42;;;;;;;13.80;9.15;;;3.40;99.90;;;;;;5041181;28;20033;-63
2023/12/14 06:31:13;;;;;;;16.90;9.70;;;3.40;99.90;;;;;;5041854;28;20028;-63
2023/12/14 06:33:38;;;;;;;16.13;9.50;;;3.40;99.90;;;;;;5038453;28;20534;-63
2023/12/14 06:36:05;;;;;;;16.55;9.57;;;3.40;99.90;;;;;;5038085;28;20718;-63
2023/12/14 06:38:31;;;;;;;17.85;9.70;;;3.40;99.90;;;;;;5042976;28;20061;-63
2023/12/14 06:40:56;;;;;;;18.60;10.52;;;3.40;99.90;;;;;;5041557;28;20731;-63
2023/12/14 06:43:22;;;;;;;16.98;9.88;;;3.40;99.90;;;;;;5041986;28;20037;-63
2023/12/14 06:45:47;;;;;;;17.42;9.60;;;3.40;99.90;;;;;;5038869;28;20036;-63
2023/12/14 06:48:13;;;;;;;15.60;8.93;;;3.40;99.90;;;;;;5040657;28;20111;-63
2023/12/14 06:50:38;;;;;;;25.65;12.50;;;3.50;99.90;;;;;;5043264;28;20107;-63
2023/12/14 06:53:04;;;;;;;18.67;10.50;;;3.40;99.90;;;;;;5041377;28;20398;-66
2023/12/14 06:55:30;;;;;;;16.08;9.18;;;3.40;99.90;;;;;;5037488;28;20029;-65
2023/12/14 06:57:55;;;;;;;14.13;8.70;;;3.50;99.90;;;;;;5040457;28;20064;-63
2023/12/14 07:00:21;;;;;;;18.80;10.23;;;3.50;99.90;;;;;;5041702;28;20032;-63
2023/12/14 07:02:46;;;;;;;18.05;10.63;;;3.50;99.90;;;;;;5034429;28;20041;-63
2023/12/14 07:05:11;;;;;;;16.48;9.43;;;3.50;99.90;;;;;;5043215;28;20033;-63
2023/12/14 07:07:37;;;;;;;15.93;9.20;;;3.50;99.90;;;;;;5041616;28;20044;-63
2023/12/14 07:10:03;;;;;;;19.95;10.75;;;3.50;99.90;;;;;;5041685;28;20021;-63
2023/12/14 07:12:28;;;;;;;16.58;9.80;;;3.50;99.90;;;;;;5041405;28;20029;-64
2023/12/14 07:14:54;;;;;;;18.95;10.18;;;3.50;99.90;;;;;;5041533;28;20024;-64
2023/12/14 07:17:19;;;;;;;18.15;10.75;;;3.50;99.90;;;;;;5036422;28;20029;-62
2023/12/14 07:19:45;;;;;;;16.15;9.70;;;3.50;99.90;;;;;;5043156;28;20040;-65
2023/12/14 07:22:11;;;;;;;19.92;11.45;;;3.50;99.90;;;;;;5038620;28;20112;-63
2023/12/14 07:24:36;;;;;;;16.27;9.52;;;3.50;99.90;;;;;;5041352;28;20029;-64
2023/12/14 07:27:02;;;;;;;17.33;10.60;;;3.50;99.90;;;;;;5038961;28;20120;-63
2023/12/14 07:29:27;;;;;;;15.32;8.98;;;3.50;99.90;;;;;;5037802;28;20091;-64
2023/12/14 07:31:53;;;;;;;16.42;9.68;;;3.50;99.90;;;;;;5039542;28;20445;-64
2023/12/14 07:34:20;;;;;;;18.65;9.88;;;3.60;99.90;;;;;;5042746;28;20394;-64
2023/12/14 07:36:45;;;;;;;17.50;9.82;;;3.50;99.90;;;;;;5030613;28;20486;-64
2023/12/14 07:39:12;;;;;;;16.52;10.52;;;3.60;99.90;;;;;;5040617;28;20032;-63
2023/12/14 07:41:37;;;;;;;18.95;11.70;;;3.60;99.90;;;;;;5040800;28;20028;-63
2023/12/14 07:44:04;;;;;;;18.52;11.20;;;3.50;99.90;;;;;;5041024;28;20398;-64
2023/12/14 07:46:30;;;;;;;22.13;12.68;;;3.60;99.90;;;;;;5036304;28;20059;-63
2023/12/14 07:48:55;;;;;;;19.23;11.73;;;3.50;99.90;;;;;;5040678;28;20503;-64
2023/12/14 07:51:21;;;;;;;20.15;12.52;;;3.50;99.90;;;;;;5038686;28;20375;-62
2023/12/14 07:53:46;;;;;;;21.17;12.15;;;3.50;99.90;;;;;;5042572;28;20052;-64
2023/12/14 07:56:12;;;;;;;20.30;12.27;;;3.50;99.90;;;;;;5039542;28;20044;-63
2023/12/14 07:58:37;;;;;;;22.58;12.60;;;3.50;99.90;;;;;;5040244;28;20040;-65
2023/12/14 08:01:03;;;;;;;19.48;11.73;;;3.50;99.90;;;;;;5040088;28;20538;-63
2023/12/14 08:03:29;;;;;;;19.23;11.25;;;3.50;99.90;;;;;;5038954;28;20025;-63
2023/12/14 08:05:54;;;;;;;17.20;10.32;;;3.50;99.90;;;;;;5041831;28;20127;-63
2023/12/14 08:08:19;;;;;;;16.23;10.05;;;3.50;99.90;;;;;;5039684;28;20032;-62
2023/12/14 08:10:45;;;;;;;19.33;10.63;;;3.50;99.90;;;;;;5039598;28;20725;-64
2023/12/14 08:13:10;;;;;;;21.60;9.93;;;3.50;99.90;;;;;;5039702;28;20025;-63
2023/12/14 08:15:36;;;;;;;19.55;11.98;;;3.50;99.90;;;;;;5032967;28;20045;-57
2023/12/14 08:18:02;;;;;;;25.38;12.75;;;3.50;99.90;;;;;;5039853;28;20043;-70
2023/12/14 08:20:27;;;;;;;25.48;14.23;;;3.50;99.90;;;;;;5041580;28;20033;-71
2023/12/14 08:22:53;;;;;;;17.05;10.05;;;3.60;99.90;;;;;;5035460;28;20020;-68
2023/12/14 08:25:18;;;;;;;22.98;10.68;;;3.60;99.90;;;;;;5036610;28;20657;-70
2023/12/14 08:27:44;;;;;;;16.08;8.85;;;3.60;99.90;;;;;;5036132;28;20060;-69
2023/12/14 08:30:11;;;;;;;16.60;10.88;;;3.60;99.90;;;;;;5038241;28;20047;-68
2023/12/14 08:32:36;;;;;;;15.55;9.95;;;3.70;99.90;;;;;;5038253;28;20562;-68
2023/12/14 08:35:02;;;;;;;18.40;10.50;;;3.70;99.90;;;;;;5041455;28;20116;-69
2023/12/14 08:37:28;;;;;;;15.80;10.10;;;3.60;99.90;;;;;;5033597;28;20071;-69
2023/12/14 08:39:53;;;;;;;18.75;10.85;;;3.70;99.90;;;;;;5037140;28;20453;-69
2023/12/14 08:42:18;;;;;;;16.08;9.98;;;3.70;99.90;;;;;;5039397;28;20029;-70
2023/12/14 08:44:44;;;;;;;17.27;10.98;;;3.70;99.90;;;;;;5035638;28;20097;-70
2023/12/14 08:47:09;;;;;;;16.92;10.00;;;3.70;99.90;;;;;;5036053;28;20025;-70
2023/12/14 08:49:35;;;;;;;16.95;10.75;;;3.70;99.90;;;;;;5040736;28;20039;-70
2023/12/14 08:52:01;;;;;;;15.75;10.07;;;3.70;99.90;;;;;;5031988;28;20029;-71
2023/12/14 08:54:27;;;;;;;17.15;10.45;;;3.70;99.90;;;;;;5039353;28;20084;-72
2023/12/14 08:56:52;;;;;;;15.85;9.70;;;3.60;99.90;;;;;;5039068;28;20120;-70
2023/12/14 08:59:19;;;;;;;16.55;9.73;;;3.70;99.90;;;;;;5039082;28;20049;-70
2023/12/14 09:01:45;;;;;;;13.23;7.95;;;3.70;99.90;;;;;;5038280;28;20028;-73
2023/12/14 09:04:11;;;;;;;16.35;9.57;;;3.70;99.90;;;;;;5035419;28;20100;-71
2023/12/14 09:06:36;;;;;;;13.40;8.68;;;3.70;99.90;;;;;;5036727;28;20033;-74
2023/12/14 09:09:03;;;;;;;13.52;7.85;;;3.70;99.90;;;;;;5038738;28;20028;-73
2023/12/14 09:11:29;;;;;;;13.65;8.65;;;3.70;99.90;;;;;;5038965;28;20029;-73
2023/12/14 09:13:55;;;;;;;12.45;8.38;;;3.60;99.90;;;;;;5039443;28;20056;-71
2023/12/14 09:16:21;;;;;;;12.48;7.88;;;3.60;99.90;;;;;;5035419;28;20064;-71
2023/12/14 09:18:46;;;;;;;12.77;8.60;;;3.60;99.90;;;;;;5037635;28;20086;-71
2023/12/14 09:21:12;;;;;;;16.08;9.05;;;3.60;99.90;;;;;;5040714;28;20025;-73
2023/12/14 09:23:37;;;;;;;17.40;10.15;;;3.60;99.90;;;;;;5038827;28;20541;-75
2023/12/14 09:26:03;;;;;;;15.00;8.82;;;3.60;99.90;;;;;;5037975;28;20498;-71
2023/12/14 09:28:28;;;;;;;18.33;11.02;;;3.60;99.90;;;;;;5037848;28;20033;-72
2023/12/14 09:30:54;;;;;;;20.58;12.52;;;3.60;99.90;;;;;;5038683;28;20036;-72
2023/12/14 09:33:19;;;;;;;20.05;12.07;;;3.60;99.90;;;;;;5040403;28;20025;-74
2023/12/14 09:35:45;;;;;;;23.48;12.38;;;3.60;99.90;;;;;;5031540;28;20397;-54
2023/12/14 09:38:13;;;;;;;22.02;12.02;;;3.60;99.90;;;;;;5037724;28;20700;-57
2023/12/14 09:40:39;;;;;;;18.85;11.75;;;3.60;99.90;;;;;;5033088;28;20028;-56
2023/12/14 09:43:05;;;;;;;20.20;12.00;;;3.70;99.90;;;;;;5035132;28;20032;-54
2023/12/14 09:45:31;;;;;;;22.10;11.75;;;3.70;99.90;;;;;;5035987;28;20033;-71
2023/12/14 09:48:00;;;;;;;21.55;13.13;;;3.70;99.90;;;;;;5033093;28;20550;-68
2023/12/14 09:50:26;;;;;;;24.20;14.13;;;3.60;99.90;;;;;;5038732;28;20027;-69
2023/12/14 09:52:52;;;;;;;21.13;12.07;;;3.60;99.90;;;;;;5038520;28;20025;-68
2023/12/14 09:55:17;;;;;;;20.63;11.60;;;3.60;99.90;;;;;;5040353;28;20036;-69
2023/12/14 09:57:43;;;;;;;22.40;12.60;;;3.70;99.90;;;;;;5036975;28;20104;-69
2023/12/14 10:00:13;;;;;;;24.92;13.30;;;3.70;99.90;;;;;;5038333;28;20075;-68
2023/12/14 10:02:39;;;;;;;23.60;12.55;;;3.70;99.90;;;;;;5039238;28;20433;-70
2023/12/14 10:05:10;;;;;;;22.13;12.65;;;3.70;99.90;;;;;;5039634;28;20082;-69
2023/12/14 10:07:45;;;;;;;20.52;12.35;;;3.70;99.90;;;;;;5038181;28;20025;-70
2023/12/14 10:10:15;;;;;;;20.42;13.13;;;3.60;99.90;;;;;;5035825;28;20113;-69
2023/12/14 10:12:52;;;;;;;21.40;13.00;;;3.60;99.90;;;;;;5039601;28;20037;-69
2023/12/14 10:15:17;;;;;;;20.38;12.38;;;3.60;99.90;;;;;;5038999;28;20025;-69
2023/12/14 10:17:43;;;;;;;22.13;12.85;;;3.60;99.90;;;;;;5038815;28;20036;-70
2023/12/14 10:20:09;;;;;;;20.42;12.43;;;3.60;99.90;;;;;;5037846;28;20576;-69
2023/12/14 10:22:37;;;;;;;22.80;13.85;;;3.70;99.90;;;;;;5039213;28;20570;-69
2023/12/14 10:25:03;;;;;;;26.40;13.40;;;3.60;99.90;;;;;;5039438;28;20025;-69
2023/12/14 10:27:31;;;;;;;18.10;10.75;;;3.70;99.90;;;;;;5040893;28;20044;-70
2023/12/14 10:29:57;;;;;;;17.45;9.73;;;3.70;99.90;;;;;;5037058;28;20086;-69
2023/12/14 10:32:24;;;;;;;19.45;11.48;;;3.70;99.90;;;;;;5039309;28;20438;-71
2023/12/14 10:34:49;;;;;;;17.70;10.60;;;3.80;99.90;;;;;;5039203;28;20029;-70
2023/12/14 10:37:17;;;;;;;14.75;10.27;;;3.80;99.90;;;;;;5035618;28;20533;-70
2023/12/14 10:39:43;;;;;;;17.25;10.07;;;3.80;99.90;;;;;;5037866;28;20025;-69
2023/12/14 10:42:10;;;;;;;18.80;11.77;;;3.80;99.90;;;;;;5039318;28;20067;-69
2023/12/14 10:44:37;;;;;;;20.33;11.73;;;3.90;99.90;;;;;;5039290;28;20024;-70
2023/12/14 10:47:07;;;;;;;17.33;11.15;;;3.90;99.90;;;;;;5036946;28;20043;-70
2023/12/14 10:49:34;;;;;;;18.55;11.30;;;3.90;99.90;;;;;;5037154;28;20028;-69
2023/12/14 10:52:03;;;;;;;18.15;11.38;;;3.90;99.90;;;;;;5040666;28;20617;-68
2023/12/14 10:54:31;;;;;;;18.40;10.75;;;3.90;99.90;;;;;;5042815;28;20029;-69
2023/12/14 10:56:57;;;;;;;22.60;12.23;;;3.90;99.90;;;;;;5042173;28;20628;-69
2023/12/14 10:59:25;;;;;;;19.88;11.25;;;3.90;99.90;;;;;;5042675;28;20040;-69
2023/12/14 11:01:54;;;;;;;22.77;11.50;;;3.90;99.90;;;;;;5042588;28;20685;-69
2023/12/14 11:04:27;;;;;;;19.27;11.40;;;3.90;99.90;;;;;;5042443;28;20057;-69
2023/12/14 11:06:53;;;;;;;15.40;10.70;;;3.90;99.90;;;;;;5042834;28;20044;-69
2023/12/14 11:09:19;;;;;;;18.00;10.18;;;3.90;99.90;;;;;;5042349;28;20020;-69
2023/12/14 11:11:56;;;;;;;15.40;9.43;;;4.00;99.90;;;;;;5042544;28;20021;-69
2023/12/14 11:14:23;;;;;;;18.10;10.38;;;4.00;99.90;;;;;;5042601;28;20474;-70
2023/12/14 11:16:49;;;;;;;15.93;9.05;;;4.00;99.90;;;;;;5042027;28;20039;-57
2023/12/14 11:19:24;;;;;;;16.58;10.90;;;4.00;99.90;;;;;;5044274;28;20100;-54
2023/12/14 11:22:05;;;;;;;16.27;9.77;;;4.10;99.90;;;;;;5041745;28;20017;-69
2023/12/14 11:24:31;;;;;;;15.27;9.48;;;4.00;99.90;;;;;;5041437;28;20025;-70
2023/12/14 11:26:56;;;;;;;18.05;9.40;;;4.00;99.90;;;;;;5038116;28;20552;-70
2023/12/14 11:29:22;;;;;;;20.35;11.00;;;4.10;99.90;;;;;;5042097;28;20100;-70
2023/12/14 11:31:48;;;;;;;16.40;9.50;;;4.10;99.90;;;;;;5038163;28;20398;-69
2023/12/14 11:34:17;;;;;;;14.65;8.30;;;4.10;99.90;;;;;;5043750;28;20025;-70
2023/12/14 11:36:43;;;;;;;16.45;10.02;;;4.10;99.90;;;;;;5037937;28;20041;-70
2023/12/14 11:39:09;;;;;;;14.75;9.07;;;4.10;99.90;;;;;;5042055;28;20029;-70
2023/12/14 11:41:36;;;;;;;15.18;9.07;;;4.10;99.90;;;;;;5041934;28;20502;-70
2023/12/14 11:44:01;;;;;;;16.83;9.23;;;4.10;99.90;;;;;;5041912;28;20025;-70
2023/12/14 11:46:29;;;;;;;13.90;9.38;;;4.10;99.90;;;;;;5041748;28;20032;-71
2023/12/14 11:48:56;;;;;;;13.88;8.50;;;4.10;99.90;;;;;;5041844;28;20482;-70
2023/12/14 11:51:22;;;;;;;15.00;9.35;;;4.00;99.90;;;;;;5038588;28;20109;-69
2023/12/14 11:53:50;;;;;;;15.57;10.27;;;4.10;99.90;;;;;;5043471;28;20100;-70
2023/12/14 11:56:19;;;;;;;14.65;10.25;;;4.10;99.90;;;;;;5038664;28;23623;-69
2023/12/14 11:58:45;;;;;;;14.93;8.75;;;4.10;99.90;;;;;;5040792;28;20028;-70
2023/12/14 12:01:16;;;;;;;18.10;10.43;;;4.10;99.90;;;;;;5041740;28;20033;-70
2023/12/14 12:03:43;;;;;;;17.63;10.13;;;4.00;99.90;;;;;;5039828;28;20040;-71
2023/12/14 12:06:19;;;;;;;13.80;8.50;;;4.00;99.90;;;;;;5041345;28;20021;-70
2023/12/14 12:08:45;;;;;;;14.30;8.75;;;4.00;99.90;;;;;;5041375;28;20029;-71
2023/12/14 12:11:10;;;;;;;15.43;8.50;;;4.00;99.90;;;;;;5041388;28;20044;-70
2023/12/14 12:13:36;;;;;;;16.13;8.57;;;4.10;99.90;;;;;;5039960;28;20063;-70
2023/12/14 12:16:01;;;;;;;16.58;8.57;;;4.10;99.90;;;;;;5037128;28;20025;-69
2023/12/14 12:18:27;;;;;;;13.77;8.23;;;4.10;99.90;;;;;;5042771;28;20029;-70
2023/12/14 12:20:53;;;;;;;14.82;8.43;;;4.10;99.90;;;;;;5041368;28;20440;-70
2023/12/14 12:23:18;;;;;;;15.45;9.07;;;4.10;99.90;;;;;;5041046;28;20462;-70
2023/12/14 12:25:44;;;;;;;18.50;10.23;;;4.10;99.90;;;;;;5040803;28;20052;-70
2023/12/14 12:28:10;;;;;;;15.00;9.95;;;4.10;99.90;;;;;;5040937;28;20029;-71
2023/12/14 12:30:35;;;;;;;15.00;9.38;;;4.10;99.90;;;;;;5041212;28;20078;-70
2023/12/14 12:33:01;;;;;;;17.98;10.38;;;4.10;99.90;;;;;;5042823;28;20497;-70
2023/12/14 12:35:26;;;;;;;16.35;9.45;;;4.00;99.90;;;;;;5037160;28;20033;-70